Sandy Hook, Missouri
Current Conditions -  °F | °C
As of 5:54 AM on Friday 28 Nov 2014 (Local Time) from KCOU Reporting Station
Clear Clear  
Wind Chill: 18°   Ceiling: Unl
Heat Index: 29°   Visibility: 10mi
Dew Point: 23°   Wind: 14mph
Humidity: 78%   Direction: 140°SE
Pressure: 30.15"   Gusts: NA
Location:  38.7914°N, 92.4851°W
Report Text: KCOU 281154Z AUTO 14012KT 10SM CLR M02/M05 A3015 RMK AO2 PRESFR SLP219 T10171050 11011 21028 58038
Loading
Personal Weather Stations






























Interactive Weather Map New forecast layout! Learn more

10-Day Weather Forecast

Advertisements
Track Severe Weather on mobile